createdAt,value
2023-04-28T00:02:05.070Z,99.90
2023-04-28T00:04:32.910Z,99.90
2023-04-28T00:07:00.405Z,99.90
2023-04-28T00:09:28.454Z,99.90
2023-04-28T00:11:55.630Z,99.90
2023-04-28T00:14:23.319Z,99.90
2023-04-28T00:16:50.723Z,99.90
2023-04-28T00:19:18.297Z,99.90
2023-04-28T00:21:45.589Z,99.90
2023-04-28T00:24:13.010Z,99.90
2023-04-28T00:26:40.281Z,99.90
2023-04-28T00:29:07.674Z,99.90
2023-04-28T00:31:35.492Z,99.90
2023-04-28T00:34:03.099Z,99.90
2023-04-28T00:36:32.272Z,99.90
2023-04-28T00:39:03.189Z,99.90
2023-04-28T00:41:30.571Z,99.90
2023-04-28T00:43:57.900Z,99.90
2023-04-28T00:46:33.509Z,99.90
2023-04-28T00:49:01.193Z,99.90
2023-04-28T00:51:28.983Z,99.90
2023-04-28T00:53:57.398Z,99.90
2023-04-28T00:56:27.436Z,99.90
2023-04-28T00:58:55.698Z,99.90
2023-04-28T01:01:23.034Z,99.90
2023-04-28T01:03:51.616Z,99.90
2023-04-28T01:06:20.385Z,99.90
2023-04-28T01:08:53.356Z,99.90
2023-04-28T01:11:20.831Z,99.90
2023-04-28T01:14:17.761Z,99.90
2023-04-28T01:16:45.572Z,99.90
2023-04-28T01:19:22.431Z,99.90
2023-04-28T01:21:51.406Z,99.90
2023-04-28T01:24:23.217Z,99.90
2023-04-28T01:26:51.067Z,99.90
2023-04-28T01:29:18.743Z,99.90
2023-04-28T01:31:46.053Z,99.90
2023-04-28T01:34:13.837Z,99.90
2023-04-28T01:36:42.689Z,99.90
2023-04-28T01:39:11.247Z,99.90
2023-04-28T01:41:40.921Z,99.90
2023-04-28T01:44:08.675Z,99.90
2023-04-28T01:46:36.548Z,99.90
2023-04-28T01:49:04.116Z,99.90
2023-04-28T01:51:31.273Z,99.90
2023-04-28T01:53:58.703Z,99.90
2023-04-28T01:56:25.846Z,99.90
2023-04-28T01:58:56.092Z,99.90
2023-04-28T02:01:23.907Z,99.90
2023-04-28T02:03:51.731Z,99.90
2023-04-28T02:06:19.052Z,99.90
2023-04-28T02:08:46.576Z,99.90
2023-04-28T02:11:13.771Z,99.90
2023-04-28T02:13:41.619Z,99.90
2023-04-28T02:16:08.951Z,99.90
2023-04-28T02:18:36.501Z,99.90
2023-04-28T02:21:11.999Z,99.90
2023-04-28T02:23:40.702Z,99.90
2023-04-28T02:26:08.127Z,99.90
2023-04-28T02:28:35.609Z,99.90
2023-04-28T02:31:06.718Z,99.90
2023-04-28T02:33:34.532Z,99.90
2023-04-28T02:36:04.725Z,99.90
2023-04-28T02:38:32.236Z,99.90
2023-04-28T02:41:05.830Z,99.90
2023-04-28T02:43:34.744Z,99.90
2023-04-28T02:46:04.382Z,99.90
2023-04-28T02:48:33.459Z,99.90
2023-04-28T02:51:00.524Z,99.90
2023-04-28T02:53:28.828Z,99.90
2023-04-28T02:55:56.108Z,99.90
2023-04-28T02:58:23.537Z,99.90
2023-04-28T03:00:50.691Z,99.90
2023-04-28T03:03:18.843Z,99.90
2023-04-28T03:05:46.403Z,99.90
2023-04-28T03:08:13.786Z,99.90
2023-04-28T03:10:41.084Z,99.90
2023-04-28T03:13:08.656Z,99.90
2023-04-28T03:15:35.926Z,99.90
2023-04-28T03:18:04.583Z,99.90
2023-04-28T03:20:31.801Z,99.90
2023-04-28T03:22:59.177Z,99.90
2023-04-28T03:25:26.438Z,99.90
2023-04-28T03:27:54.061Z,99.90
2023-04-28T03:30:23.586Z,99.90
2023-04-28T03:32:51.143Z,99.90
2023-04-28T03:35:18.588Z,99.90
2023-04-28T03:37:45.993Z,99.90
2023-04-28T03:40:13.450Z,99.90
2023-04-28T03:43:19.143Z,99.90
2023-04-28T03:46:06.036Z,99.90
2023-04-28T03:48:34.206Z,99.90
2023-04-28T03:51:01.352Z,99.90
2023-04-28T03:53:29.042Z,99.90
2023-04-28T03:55:56.315Z,99.90
2023-04-28T03:58:23.846Z,99.90
2023-04-28T04:00:51.060Z,99.90
2023-04-28T04:03:20.334Z,99.90
2023-04-28T04:05:48.454Z,99.90
2023-04-28T04:08:16.875Z,99.90
2023-04-28T04:10:44.166Z,99.90
2023-04-28T04:13:11.559Z,99.90
2023-04-28T04:15:38.818Z,99.90
2023-04-28T04:18:07.176Z,99.90
2023-04-28T04:21:00.838Z,99.90
2023-04-28T04:23:28.410Z,99.90
2023-04-28T04:25:56.277Z,99.90
2023-04-28T04:28:23.665Z,99.90
2023-04-28T04:30:50.917Z,99.90
2023-04-28T04:33:18.570Z,99.90
2023-04-28T04:35:46.583Z,99.90
2023-04-28T04:38:13.984Z,99.90
2023-04-28T04:40:41.290Z,99.90
2023-04-28T04:43:08.813Z,99.90
2023-04-28T04:45:43.363Z,99.90
2023-04-28T04:48:11.868Z,99.90
2023-04-28T04:50:38.951Z,99.90
2023-04-28T04:53:08.476Z,99.90
2023-04-28T04:55:37.933Z,99.90
2023-04-28T04:58:05.759Z,99.90
2023-04-28T05:01:04.316Z,99.90
2023-04-28T05:03:31.854Z,99.90
2023-04-28T05:06:00.043Z,99.90
2023-04-28T05:09:00.059Z,99.90
2023-04-28T05:11:30.617Z,99.90
2023-04-28T05:13:57.976Z,99.90
2023-04-28T05:16:25.629Z,99.90
2023-04-28T05:19:22.420Z,99.90
2023-04-28T05:21:52.523Z,99.90
2023-04-28T05:24:24.247Z,99.90
2023-04-28T05:26:54.082Z,99.90
2023-04-28T05:29:21.931Z,99.90
2023-04-28T05:31:49.267Z,99.90
2023-04-28T05:34:17.182Z,99.90
2023-04-28T05:36:45.089Z,99.90
2023-04-28T05:39:13.704Z,99.90
2023-04-28T05:41:42.414Z,99.90
2023-04-28T05:44:10.003Z,99.90
2023-04-28T05:46:37.549Z,99.90
2023-04-28T05:49:05.204Z,99.90
2023-04-28T05:51:36.012Z,99.90
2023-04-28T05:54:03.901Z,99.90
2023-04-28T05:56:34.408Z,99.90
2023-04-28T05:59:04.499Z,99.90
2023-04-28T06:01:32.798Z,99.90
2023-04-28T06:04:00.716Z,99.90
2023-04-28T06:06:28.375Z,99.90
2023-04-28T06:08:56.155Z,99.90
2023-04-28T06:11:23.313Z,99.90
2023-04-28T06:13:51.538Z,99.90
2023-04-28T06:16:19.467Z,99.90
2023-04-28T06:18:49.712Z,99.90
2023-04-28T06:21:17.886Z,99.90
2023-04-28T06:23:46.083Z,99.90
2023-04-28T06:26:14.730Z,99.90
2023-04-28T06:28:43.367Z,99.90
2023-04-28T06:31:10.762Z,99.90
2023-04-28T06:33:39.087Z,99.90
2023-04-28T06:36:07.728Z,99.90
2023-04-28T06:38:35.211Z,99.90
2023-04-28T06:41:02.984Z,99.90
2023-04-28T06:43:33.370Z,99.90
2023-04-28T06:46:10.853Z,99.90
2023-04-28T06:48:38.513Z,99.90
2023-04-28T06:51:06.063Z,99.90
2023-04-28T06:53:35.625Z,99.90
2023-04-28T06:56:04.463Z,99.90
2023-04-28T06:58:32.236Z,99.90
2023-04-28T07:00:59.654Z,99.90
2023-04-28T07:03:27.881Z,99.90
2023-04-28T07:05:55.133Z,99.90
2023-04-28T07:08:22.939Z,99.90
2023-04-28T07:10:49.955Z,99.90
2023-04-28T07:13:17.396Z,99.90
2023-04-28T07:15:44.610Z,99.90
2023-04-28T07:18:12.060Z,99.90
2023-04-28T07:20:39.358Z,99.90
2023-04-28T07:23:06.789Z,99.40
2023-04-28T07:25:35.143Z,99.30
2023-04-28T07:28:04.797Z,99.20
2023-04-28T07:30:32.007Z,95.30
2023-04-28T07:33:01.005Z,97.50
2023-04-28T07:35:29.605Z,97.60
2023-04-28T07:37:58.013Z,97.10
2023-04-28T07:40:25.179Z,96.70
2023-04-28T07:42:52.886Z,95.00
2023-04-28T07:45:20.342Z,94.50
2023-04-28T07:47:47.842Z,95.30
2023-04-28T07:50:16.044Z,94.80
2023-04-28T07:52:44.628Z,94.00
2023-04-28T07:55:11.866Z,94.90
2023-04-28T07:57:39.485Z,94.20
2023-04-28T08:00:07.621Z,90.80
2023-04-28T08:02:41.166Z,92.70
2023-04-28T08:05:09.860Z,92.90
2023-04-28T08:07:38.034Z,92.60
2023-04-28T08:10:07.051Z,92.90
2023-04-28T08:12:34.565Z,92.70
2023-04-28T08:15:04.913Z,92.60
2023-04-28T08:17:32.233Z,92.40
2023-04-28T08:19:59.413Z,92.50
2023-04-28T08:22:26.845Z,92.50
2023-04-28T08:24:53.899Z,91.70
2023-04-28T08:27:21.287Z,92.40
2023-04-28T08:29:48.429Z,92.40
2023-04-28T08:32:15.903Z,92.30
2023-04-28T08:34:43.213Z,91.70
2023-04-28T08:37:10.953Z,91.10
2023-04-28T08:39:38.007Z,90.40
2023-04-28T08:42:05.982Z,90.50
2023-04-28T08:44:40.473Z,90.80
2023-04-28T08:47:15.107Z,90.70
2023-04-28T08:49:44.943Z,90.60
2023-04-28T08:52:17.264Z,79.90
2023-04-28T08:54:46.014Z,85.70
2023-04-28T08:57:13.765Z,86.70
2023-04-28T08:59:41.701Z,87.50
2023-04-28T09:02:09.818Z,85.50
2023-04-28T09:04:37.956Z,86.50
2023-04-28T09:07:12.061Z,86.20
2023-04-28T09:09:40.804Z,85.60
2023-04-28T09:12:09.002Z,85.10
2023-04-28T09:14:38.755Z,85.60
2023-04-28T09:17:14.390Z,86.40
2023-04-28T09:19:45.298Z,86.10
2023-04-28T09:24:47.003Z,82.10
2023-04-28T09:27:15.455Z,81.40
2023-04-28T09:29:53.947Z,80.90
2023-04-28T09:32:23.954Z,82.10
2023-04-28T09:34:56.497Z,79.40
2023-04-28T09:37:27.378Z,79.70
2023-04-28T09:39:55.617Z,81.00
2023-04-28T09:42:38.425Z,81.60
2023-04-28T09:45:11.847Z,81.20
2023-04-28T09:47:48.532Z,80.60
2023-04-28T09:50:18.186Z,82.30
2023-04-28T09:52:57.254Z,79.70
2023-04-28T09:55:25.764Z,81.50
2023-04-28T09:57:55.706Z,80.80
2023-04-28T10:00:23.935Z,80.80
2023-04-28T10:02:52.561Z,82.10
2023-04-28T10:05:23.163Z,81.00
2023-04-28T10:07:54.031Z,80.40
2023-04-28T10:10:22.449Z,80.50
2023-04-28T10:12:51.475Z,79.80
2023-04-28T10:15:18.650Z,80.20
2023-04-28T10:17:48.206Z,79.30
2023-04-28T10:20:17.102Z,79.40
2023-04-28T10:23:06.672Z,79.30
2023-04-28T10:25:39.040Z,78.60
2023-04-28T10:28:09.161Z,79.00
2023-04-28T10:30:37.801Z,80.00
2023-04-28T10:33:14.398Z,78.60
2023-04-28T10:35:47.596Z,78.90
2023-04-28T10:38:17.940Z,77.80
2023-04-28T10:40:53.649Z,76.80
2023-04-28T10:43:32.993Z,76.60
2023-04-28T10:46:04.599Z,74.10
2023-04-28T10:48:37.022Z,73.50
2023-04-28T10:51:22.722Z,70.40
2023-04-28T10:53:51.249Z,70.30
2023-04-28T10:56:27.513Z,71.70
2023-04-28T10:58:56.970Z,72.30
2023-04-28T11:01:35.093Z,70.00
2023-04-28T11:04:16.837Z,71.30
2023-04-28T11:06:46.997Z,69.50
2023-04-28T11:09:21.064Z,71.10
2023-04-28T11:12:00.558Z,71.80
2023-04-28T11:14:36.598Z,72.70
2023-04-28T11:17:13.581Z,72.30
2023-04-28T11:19:45.111Z,70.60
2023-04-28T11:22:20.237Z,70.30
2023-04-28T11:25:03.959Z,70.40
2023-04-28T11:27:33.461Z,69.80
2023-04-28T11:30:01.692Z,67.50
2023-04-28T11:32:35.533Z,64.80
2023-04-28T11:35:04.729Z,65.00
2023-04-28T11:37:32.008Z,67.00
2023-04-28T11:40:10.611Z,67.70
2023-04-28T11:42:47.338Z,70.00
2023-04-28T11:45:14.992Z,70.00
2023-04-28T11:47:42.265Z,70.60
2023-04-28T11:50:09.875Z,69.20
2023-04-28T11:52:37.469Z,69.90
2023-04-28T11:55:07.302Z,67.40
2023-04-28T11:57:35.454Z,66.50
2023-04-28T12:00:21.984Z,57.60
2023-04-28T12:02:49.849Z,66.30
2023-04-28T12:05:17.620Z,66.50
2023-04-28T12:07:45.604Z,67.10
2023-04-28T12:10:18.883Z,66.20
2023-04-28T12:12:52.704Z,64.80
2023-04-28T12:15:22.862Z,65.70
2023-04-28T12:17:51.130Z,65.40
2023-04-28T12:20:39.492Z,65.30
2023-04-28T12:23:08.440Z,65.10
2023-04-28T12:25:47.838Z,64.80
2023-04-28T12:28:15.266Z,61.00
2023-04-28T12:30:43.393Z,61.20
2023-04-28T12:33:29.212Z,59.80
2023-04-28T12:35:58.201Z,64.00
2023-04-28T12:38:27.420Z,64.40
2023-04-28T12:40:55.501Z,65.20
2023-04-28T12:43:24.233Z,57.10
2023-04-28T12:45:56.493Z,62.50
2023-04-28T12:48:24.969Z,63.70
2023-04-28T12:50:52.437Z,64.20
2023-04-28T12:53:19.870Z,59.30
2023-04-28T12:55:47.902Z,66.00
2023-04-28T12:58:15.125Z,66.00
2023-04-28T13:00:43.061Z,66.40
2023-04-28T13:03:11.456Z,65.30
2023-04-28T13:05:39.041Z,65.70
2023-04-28T13:08:06.289Z,66.40
2023-04-28T13:10:33.697Z,57.40
2023-04-28T13:13:00.830Z,65.30
2023-04-28T13:15:28.731Z,65.90
2023-04-28T13:17:56.037Z,66.30
2023-04-28T13:20:23.506Z,65.50
2023-04-28T13:22:52.193Z,65.70
2023-04-28T13:25:19.646Z,62.90
2023-04-28T13:27:47.700Z,62.90
2023-04-28T13:30:15.052Z,56.40
2023-04-28T13:32:42.191Z,65.50
2023-04-28T13:35:09.855Z,66.40
2023-04-28T13:37:42.507Z,65.50
2023-04-28T13:40:11.687Z,65.20
2023-04-28T13:42:38.847Z,65.40
2023-04-28T13:45:06.828Z,65.00
2023-04-28T13:47:34.088Z,65.00
2023-04-28T13:50:02.050Z,65.10
2023-04-28T13:52:29.437Z,64.10
2023-04-28T13:54:57.001Z,64.90
2023-04-28T13:57:24.286Z,65.10
2023-04-28T13:59:51.697Z,62.10
2023-04-28T14:02:19.000Z,63.40
2023-04-28T14:04:49.354Z,65.30
2023-04-28T14:07:17.329Z,63.90
2023-04-28T14:09:44.996Z,65.20
2023-04-28T14:12:13.836Z,60.50
2023-04-28T14:14:41.593Z,63.50
2023-04-28T14:17:09.494Z,65.60
2023-04-28T14:19:37.107Z,57.30
2023-04-28T14:22:04.477Z,61.60
2023-04-28T14:24:31.875Z,63.90
2023-04-28T14:26:59.146Z,63.30
2023-04-28T14:29:26.586Z,66.20
2023-04-28T14:31:53.779Z,65.10
2023-04-28T14:34:21.257Z,61.10
2023-04-28T14:36:48.658Z,66.10
2023-04-28T14:39:16.281Z,66.30
2023-04-28T14:41:43.373Z,60.60
2023-04-28T14:44:10.921Z,58.80
2023-04-28T14:46:38.234Z,61.00
2023-04-28T14:49:06.058Z,62.70
2023-04-28T14:51:33.272Z,62.00
2023-04-28T14:54:01.084Z,62.10
2023-04-28T14:56:28.482Z,67.50
2023-04-28T14:58:55.821Z,67.00
2023-04-28T15:01:23.010Z,66.20
2023-04-28T15:03:50.637Z,61.50
2023-04-28T15:06:18.223Z,60.20
2023-04-28T15:08:46.288Z,62.90
2023-04-28T15:11:13.451Z,63.70
2023-04-28T15:13:42.857Z,67.00
2023-04-28T15:16:10.381Z,64.40
2023-04-28T15:18:38.330Z,65.10
2023-04-28T15:21:06.671Z,66.60
2023-04-28T15:23:34.109Z,68.00
2023-04-28T15:26:02.426Z,65.50
2023-04-28T15:28:30.089Z,64.70
2023-04-28T15:30:57.156Z,67.30
2023-04-28T15:33:24.711Z,61.40
2023-04-28T15:35:51.922Z,62.50
2023-04-28T15:38:19.357Z,66.10
2023-04-28T15:40:46.540Z,68.40
2023-04-28T15:43:13.930Z,67.50
2023-04-28T15:45:41.225Z,64.30
2023-04-28T15:48:10.089Z,62.50
2023-04-28T15:50:37.593Z,65.30
2023-04-28T15:53:04.957Z,64.80
2023-04-28T15:55:32.176Z,64.60
2023-04-28T15:58:01.221Z,65.90
2023-04-28T16:00:28.363Z,65.30
2023-04-28T16:02:55.862Z,66.70
2023-04-28T16:05:23.502Z,65.90
2023-04-28T16:07:52.585Z,65.60
2023-04-28T16:10:19.766Z,64.30
2023-04-28T16:12:47.240Z,65.10
2023-04-28T16:15:14.539Z,64.90
2023-04-28T16:17:42.333Z,67.70
2023-04-28T16:20:11.553Z,68.90
2023-04-28T16:22:41.393Z,69.60
2023-04-28T16:25:09.759Z,66.70
2023-04-28T16:27:38.958Z,69.50
2023-04-28T16:30:07.452Z,69.30
2023-04-28T16:32:38.342Z,66.00
2023-04-28T16:35:06.589Z,66.40
2023-04-28T16:37:36.356Z,70.20
2023-04-28T16:40:04.538Z,66.60
2023-04-28T16:42:32.033Z,69.90
2023-04-28T16:44:59.747Z,69.90
2023-04-28T16:47:28.309Z,69.40
2023-04-28T16:49:55.781Z,68.20
2023-04-28T16:52:23.236Z,67.90
2023-04-28T16:54:50.428Z,67.90
2023-04-28T16:57:17.799Z,70.00
2023-04-28T16:59:46.491Z,70.60
2023-04-28T17:02:13.986Z,68.10
2023-04-28T17:04:41.854Z,68.50
2023-04-28T17:07:09.482Z,69.70
2023-04-28T17:09:36.839Z,71.00
2023-04-28T17:12:04.957Z,70.20
2023-04-28T17:14:32.318Z,72.00
2023-04-28T17:16:59.797Z,71.50
2023-04-28T17:19:27.498Z,70.10
2023-04-28T17:21:55.599Z,69.00
2023-04-28T17:24:23.677Z,70.20
2023-04-28T17:26:51.823Z,71.40
2023-04-28T17:29:19.059Z,70.20
2023-04-28T17:31:46.492Z,71.30
2023-04-28T17:34:13.805Z,72.20
2023-04-28T17:36:42.128Z,70.50
2023-04-28T17:39:09.670Z,73.70
2023-04-28T17:41:37.213Z,72.30
2023-04-28T17:44:04.688Z,70.90
2023-04-28T17:46:32.490Z,71.10
2023-04-28T17:49:00.385Z,71.40
2023-04-28T17:51:28.657Z,72.10
2023-04-28T17:53:57.016Z,73.40
2023-04-28T17:56:24.660Z,72.80
2023-04-28T17:58:52.395Z,72.50
2023-04-28T18:01:20.009Z,72.90
2023-04-28T18:03:48.109Z,74.60
2023-04-28T18:06:16.138Z,72.80
2023-04-28T18:08:43.314Z,75.60
2023-04-28T18:11:11.520Z,75.40
2023-04-28T18:13:38.783Z,72.60
2023-04-28T18:16:06.305Z,75.40
2023-04-28T18:18:35.550Z,74.20
2023-04-28T18:21:03.218Z,74.30
2023-04-28T18:23:30.668Z,74.40
2023-04-28T18:25:58.256Z,74.40
2023-04-28T18:28:25.503Z,74.50
2023-04-28T18:30:52.835Z,74.20
2023-04-28T18:33:23.106Z,74.10
2023-04-28T18:36:02.228Z,73.90
2023-04-28T18:38:31.709Z,74.00
2023-04-28T18:40:59.050Z,72.90
2023-04-28T18:43:28.190Z,74.00
2023-04-28T18:45:55.666Z,74.00
2023-04-28T18:48:23.459Z,74.10
2023-04-28T18:50:51.010Z,74.20
2023-04-28T18:53:18.536Z,74.20
2023-04-28T18:55:45.949Z,74.30
2023-04-28T18:58:14.960Z,74.40
2023-04-28T19:00:45.740Z,74.40
2023-04-28T19:03:13.546Z,74.40
2023-04-28T19:05:45.202Z,74.60
2023-04-28T19:08:12.981Z,74.80
2023-04-28T19:10:41.282Z,74.80
2023-04-28T19:13:08.755Z,74.90
2023-04-28T19:15:36.317Z,75.10
2023-04-28T19:18:04.765Z,75.10
2023-04-28T19:20:32.508Z,75.20
2023-04-28T19:23:03.707Z,75.10
2023-04-28T19:25:33.524Z,75.30
2023-04-28T19:28:00.821Z,75.40
2023-04-28T19:30:28.293Z,75.50
2023-04-28T19:32:55.567Z,75.60
2023-04-28T19:35:23.372Z,75.60
2023-04-28T19:37:50.622Z,75.90
2023-04-28T19:40:18.208Z,76.00
2023-04-28T19:42:45.340Z,76.10
2023-04-28T19:45:12.683Z,76.20
2023-04-28T19:47:39.986Z,76.30
2023-04-28T19:50:10.060Z,76.30
2023-04-28T19:52:37.438Z,76.40
2023-04-28T19:55:05.358Z,76.40
2023-04-28T19:57:32.439Z,76.40
2023-04-28T19:59:59.889Z,76.50
2023-04-28T20:02:28.513Z,77.20
2023-04-28T20:04:56.608Z,76.80
2023-04-28T20:07:23.670Z,76.80
2023-04-28T20:09:52.601Z,77.10
2023-04-28T20:12:19.889Z,77.10
2023-04-28T20:14:47.343Z,77.30
2023-04-28T20:17:16.945Z,77.40
2023-04-28T20:19:44.565Z,77.50
2023-04-28T20:22:11.684Z,77.70
2023-04-28T20:24:40.117Z,77.70
2023-04-28T20:27:07.185Z,77.80
2023-04-28T20:29:35.073Z,77.80
2023-04-28T20:32:03.592Z,77.90
2023-04-28T20:34:34.162Z,78.10
2023-04-28T20:37:06.350Z,78.10
2023-04-28T20:39:34.505Z,78.20
2023-04-28T20:42:02.598Z,78.30
2023-04-28T20:44:30.098Z,78.40
2023-04-28T20:46:57.334Z,78.50
2023-04-28T20:49:25.205Z,78.60
2023-04-28T20:51:52.632Z,78.70
2023-04-28T20:54:20.144Z,78.80
2023-04-28T20:56:47.272Z,78.90
2023-04-28T20:59:14.886Z,79.70
2023-04-28T21:01:42.060Z,79.20
2023-04-28T21:04:10.438Z,79.40
2023-04-28T21:06:38.334Z,79.60
2023-04-28T21:09:05.796Z,79.70
2023-04-28T21:11:32.965Z,79.70
2023-04-28T21:14:00.423Z,79.80
2023-04-28T21:16:27.579Z,80.00
2023-04-28T21:18:55.007Z,80.10
2023-04-28T21:21:22.409Z,80.10
2023-04-28T21:23:49.892Z,80.20
2023-04-28T21:26:17.214Z,80.30
2023-04-28T21:28:44.658Z,80.30
2023-04-28T21:31:11.824Z,80.40
2023-04-28T21:33:39.237Z,80.50
2023-04-28T21:36:08.107Z,80.70
2023-04-28T21:38:37.197Z,80.80
2023-04-28T21:41:04.759Z,80.90
2023-04-28T21:43:32.402Z,81.00
2023-04-28T21:45:59.603Z,81.00
2023-04-28T21:48:27.064Z,81.20
2023-04-28T21:50:54.223Z,81.30
2023-04-28T21:53:22.084Z,81.50
2023-04-28T21:55:49.672Z,81.50
2023-04-28T21:58:17.472Z,81.70
2023-04-28T22:00:48.509Z,81.90
2023-04-28T22:03:16.477Z,81.90
2023-04-28T22:05:45.135Z,81.90
2023-04-28T22:08:13.783Z,82.10
2023-04-28T22:10:41.265Z,82.20
2023-04-28T22:13:09.082Z,82.50
2023-04-28T22:15:36.350Z,82.80
2023-04-28T22:18:05.219Z,82.90
2023-04-28T22:20:32.873Z,83.00
2023-04-28T22:23:00.290Z,83.10
2023-04-28T22:25:28.245Z,83.10
2023-04-28T22:27:55.815Z,83.20
2023-04-28T22:30:25.660Z,83.40
2023-04-28T22:32:53.918Z,83.50
2023-04-28T22:35:21.363Z,83.60
2023-04-28T22:37:48.774Z,83.80
2023-04-28T22:40:15.921Z,83.90
2023-04-28T22:42:44.515Z,84.00
2023-04-28T22:45:12.047Z,84.30
2023-04-28T22:47:41.181Z,84.40
2023-04-28T22:50:10.736Z,84.60
2023-04-28T22:52:38.511Z,84.90
2023-04-28T22:55:06.393Z,84.90
2023-04-28T22:57:34.335Z,84.90
2023-04-28T23:00:02.378Z,85.10
2023-04-28T23:02:30.074Z,85.20
2023-04-28T23:04:57.815Z,85.30
2023-04-28T23:07:25.812Z,85.50
2023-04-28T23:09:53.387Z,85.80
2023-04-28T23:12:21.802Z,86.00
2023-04-28T23:14:48.933Z,86.20
2023-04-28T23:17:16.445Z,86.30
2023-04-28T23:19:43.679Z,86.30
2023-04-28T23:22:11.124Z,86.40
2023-04-28T23:24:39.795Z,86.40
2023-04-28T23:27:07.343Z,86.40
2023-04-28T23:29:35.819Z,86.60
2023-04-28T23:32:04.317Z,86.60
2023-04-28T23:34:31.625Z,86.90
2023-04-28T23:36:59.358Z,87.10
2023-04-28T23:39:27.009Z,87.40
2023-04-28T23:41:54.444Z,87.60
2023-04-28T23:44:21.500Z,87.70
2023-04-28T23:46:49.278Z,87.80
2023-04-28T23:49:16.509Z,88.00
2023-04-28T23:51:44.017Z,88.10
2023-04-28T23:54:11.574Z,88.20
2023-04-28T23:56:39.342Z,88.60
2023-04-28T23:59:08.212Z,88.80
